Portada
METAR-TAF:

METAR-TAF

Aeroports :

Stàvropol, Rússia

latitud: 45-20N, longitud: 042-00E, altitud: 453 m

Observació

L'informe es va fer fa 22 minuts, a les 02:00 UTC
Vent 4 kt del Oest
Temperatura 0°C
Humitat 93%
Pressió 1025 hPa
Visibilitat 10 km o més
sense núvols per sota de 1500 mi sense presència de cumulonimbus.

METAR: URMT 020200Z 28002MPS CAVOK 00/M01 Q1025 R25/190060 TEMPO 1000 SHSNRA BR BKN003 BKN020CB RMK QFE730

Hora: 06:22 (02:22 UTC)

Pronòstic

L'informe es va fer fa 3 hores i 22 minuts, a les 23:00 UTC
Pronòstic vàlid del 02 a les 00 UTC al 02 a les 09 UTC
Vent 6 kt del Oest amb ràfegues de 16 kt
Visibilitat 10 km o més
Cel ennuvolat a una alçada de 2000 ft
Temporalment
l' 02 a les 00 UTC al 02 a les 06 UTC
Visibilitat: 3100 m
Núvols disperses a una alçada de 500 ft
Cel ennuvolat a una alçada de 2000 ft
neu, pluja, boirina

TAF: URMT 012300Z 0200/0209 27003G08MPS 9999 BKN020 TEMPO 0200/0206 3100 -SNRA BR SCT005 BKN020

Observacions i pronòstics meteorològics de més de 4000 aeroports (METAR i TAF).

Les estacions disponibles són els punts grocs i vermells al mapa.

Posi el ratolí al punt desitjat per veure el nom de l'estació.

Feu clic per veure les observacions i els pronòstics meteorològics.

Per canviar el mapa: feu clic els botons verds amb una creu de color negre per apropar; al botó verd amb un guió per allunyar la imatge; o en les fletxes verdes per a mapes adjacents.


METAR-TAF: